Latest Weather Observations for Delamere

IDD60801

Issued at 4:05 pm CST Tuesday 2 September 2014 (issued every 30 minutes, with the page automatically refreshed every 10 minutes)

About weather observations | Map of weather stations | Latest weather observations for NT | Other Formats
Station Details ID: 014949 Name: DELAMERE WEAPONS RANGE Lat: -15.74 Lon: 131.92 Height: 221.0 m
Data from the previous 72 hours. | See also: Recent months at Delamere
Date/Time
CST
Temp
°C
App
Temp
°C
Dew
Point
Rel
Hum
%
Delta-T
°C
Wind Press
QNH
hPa
Press
MSL
hPa
Rain
since 9 am
mm
Dir
 
Spd
km/h
Gust
km/h
Spd
kts
Gust
kts
02/04:00pm 34.5 29.8 5.0 16 15.9 E 19 28 10 15 1012.2 - 0.0
02/03:30pm 34.1 28.2 3.8 15 16.0 SE 24 41 13 22 1012.5 - 0.0
02/03:00pm 34.3 28.6 3.0 14 16.3 SE 22 35 12 19 1012.6 1011.4 0.0
02/02:30pm 34.7 29.3 2.3 13 16.7 ESE 20 30 11 16 1013.1 - 0.0
02/02:00pm 33.9 28.4 1.6 13 16.4 E 20 37 11 20 1013.6 - 0.0
02/01:30pm 33.7 27.4 1.5 13 16.3 E 24 35 13 19 1013.9 - 0.0
02/01:00pm 33.0 26.0 2.0 14 15.8 SE 28 37 15 20 1014.4 - 0.0
02/12:30pm 32.4 25.7 1.5 14 15.5 SE 26 37 14 20 1014.8 - 0.0
02/12:00pm 32.4 26.8 3.4 16 15.0 ESE 22 35 12 19 1015.5 1014.2 0.0
02/11:42am 32.0 27.7 13.2 31 11.4 E 28 50 15 27 1015.9 - 0.0
02/11:30am 31.2 27.6 10.5 28 12.0 E 20 33 11 18 1016.1 - 0.0
02/11:00am 30.1 27.5 13.8 37 9.9 ENE 20 30 11 16 1016.8 - 0.0
02/10:30am 28.4 27.0 13.5 40 8.9 E 13 19 7 10 1017.1 - 0.0
02/10:00am 27.3 26.6 13.3 42 8.3 E 9 15 5 8 1017.4 - 0.0
02/09:30am 25.7 23.9 10.7 39 8.5 NE 11 15 6 8 1017.2 - 0.0
02/09:00am 23.6 21.8 9.6 41 7.7 ENE 9 13 5 7 1017.0 1015.8 0.0
02/08:30am 21.7 19.9 9.6 46 6.6 ENE 9 13 5 7 1016.9 - 0.0
02/08:00am 19.4 17.5 7.5 46 6.1 E 7 11 4 6 1016.7 - 0.0
02/07:30am 16.6 14.1 4.9 46 5.6 E 7 7 4 4 1016.5 - 0.0
02/07:00am 14.5 11.9 4.2 50 4.8 E 7 9 4 5 1016.2 - 0.0
02/06:30am 15.1 12.5 4.2 48 5.1 E 7 9 4 5 1016.1 - 0.0
02/06:00am 15.3 12.9 5.2 51 4.8 E 7 11 4 6 1015.8 1014.5 0.0
02/05:30am 15.9 13.3 4.3 46 5.5 E 7 9 4 5 1015.6 - 0.0
02/05:00am 17.3 14.4 4.9 44 6.0 ESE 9 11 5 6 1015.4 - 0.0
02/04:30am 17.8 15.0 5.1 43 6.2 ESE 9 11 5 6 1015.3 - 0.0
02/04:00am 18.3 15.8 4.5 40 6.7 ESE 7 9 4 5 1015.2 - 0.0
02/03:30am 19.0 16.5 4.7 39 7.0 ESE 7 11 4 6 1015.2 - 0.0
02/03:00am 20.1 17.6 4.6 36 7.6 E 7 11 4 6 1015.4 1014.1 0.0
02/02:30am 21.1 17.8 4.6 34 8.1 E 11 17 6 9 1015.6 - 0.0
02/02:00am 22.5 18.9 5.0 32 8.8 SE 13 17 7 9 1015.3 - 0.0
02/01:30am 22.1 19.2 4.6 32 8.7 ESE 9 13 5 7 1015.7 - 0.0
02/01:00am 22.9 19.7 4.9 31 9.0 SE 11 15 6 8 1015.6 - 0.0
02/12:30am 23.7 20.1 5.1 30 9.4 SSE 13 17 7 9 1015.4 - 0.0
02/12:00am 23.8 20.0 5.7 31 9.3 SSE 15 20 8 11 1015.2 1013.9 0.0
 
Date/Time
CST
Temp
°C
App
Temp
°C
Dew
Point
Rel
Hum
%
Delta-T
°C
Wind Press
QNH
hPa
Press
MSL
hPa
Rain
since 9 am
mm
Dir
 
Spd
km/h
Gust
km/h
Spd
kts
Gust
kts
01/11:30pm 21.2 18.1 5.5 36 7.9 S 11 15 6 8 1015.0 - 0.0
01/11:00pm 19.5 18.3 4.4 37 7.3 CALM 0 0 0 0 1014.9 - 0.0
01/10:30pm 20.6 19.5 5.0 36 7.7 CALM 0 0 0 0 1015.0 - 0.0
01/10:00pm 21.9 21.1 6.6 37 7.9 CALM 0 4 0 2 1014.8 - 0.0
01/09:30pm 22.7 21.2 8.4 40 7.6 SE 6 7 3 4 1014.7 - 0.0
01/09:00pm 23.8 22.6 9.4 40 7.9 E 6 7 3 4 1014.5 1013.2 0.0
01/08:30pm 26.2 24.8 9.5 35 9.3 SE 7 9 4 5 1014.0 - 0.0
01/08:00pm 26.8 24.9 9.2 33 9.8 SE 9 13 5 7 1013.7 - 0.0
01/07:30pm 27.9 26.3 8.7 30 10.6 SE 7 9 4 5 1013.3 - 0.0
01/07:00pm 28.6 26.8 7.8 27 11.4 SE 7 11 4 6 1012.8 - 0.0
01/06:30pm 30.3 28.2 8.1 25 12.3 SE 9 15 5 8 1012.6 - 0.0
01/06:00pm 31.8 28.3 8.7 24 13.0 SE 17 26 9 14 1012.4 1011.1 0.0
01/05:30pm 32.4 29.4 9.2 24 13.2 ESE 15 20 8 11 1012.2 - 0.0
01/05:00pm 32.9 30.9 10.3 25 13.1 SSE 11 19 6 10 1012.0 - 0.0
01/04:30pm 32.8 28.9 9.6 24 13.3 SE 20 28 11 15 1012.2 - 0.0
01/04:00pm 33.3 30.0 9.4 23 13.7 ESE 17 24 9 13 1012.1 - 0.0
01/03:30pm 32.6 29.5 8.8 23 13.5 SE 15 24 8 13 1012.3 - 0.0
01/03:00pm 32.2 29.5 10.3 26 12.7 E 15 24 8 13 1012.7 1011.5 0.0
01/02:30pm 32.2 29.4 8.4 23 13.4 SE 13 24 7 13 1013.1 - 0.0
01/02:00pm 31.8 27.6 7.5 22 13.4 ESE 19 26 10 14 1013.5 - 0.0
01/01:30pm 31.5 27.5 6.5 21 13.6 SE 17 35 9 19 1013.8 - 0.0
01/01:00pm 31.1 28.8 10.4 28 11.9 E 13 24 7 13 1014.5 - 0.0
01/12:30pm 30.7 27.3 10.6 29 11.6 SE 19 26 10 14 1015.2 - 0.0
01/12:00pm 30.1 26.7 9.1 27 11.8 E 17 26 9 14 1015.9 1014.6 0.0
01/11:30am 29.1 25.8 8.2 27 11.5 E 15 22 8 12 1016.2 - 0.0
01/11:00am 28.3 25.6 9.1 30 10.7 ENE 13 20 7 11 1016.7 - 0.0
01/10:30am 26.7 25.0 10.0 35 9.4 NNE 9 15 5 8 1017.0 - 0.0
01/10:00am 25.2 23.0 9.5 37 8.7 N 11 15 6 8 1017.3 - 0.0
01/09:30am 23.8 21.8 8.6 38 8.2 NNE 9 15 5 8 1017.4 - 0.0
01/09:00am 21.0 18.5 6.5 39 7.4 NE 9 13 5 7 1017.3 1016.1 0.0
01/08:30am 18.8 16.1 5.6 42 6.5 NE 9 13 5 7 1016.9 - 0.0
01/08:00am 17.6 14.6 3.9 40 6.5 E 9 11 5 6 1016.7 - 0.0
01/07:30am 15.2 12.3 2.4 42 5.8 E 7 9 4 5 1016.4 - 0.0
01/07:00am 12.5 10.1 2.4 50 4.4 E 4 6 2 3 1016.0 - 0.0
01/06:30am 12.9 10.1 2.2 48 4.7 ESE 6 6 3 3 1015.6 - 0.0
01/06:00am 13.3 10.5 2.2 47 4.9 ESE 6 7 3 4 1015.1 1013.8 0.0
01/05:30am 13.7 10.7 2.0 45 5.2 E 7 9 4 5 1014.8 - 0.0
01/05:00am 14.2 11.1 1.2 41 5.7 E 7 9 4 5 1014.5 - 0.0
01/04:30am 14.8 12.1 2.4 43 5.6 E 6 7 3 4 1014.1 - 0.0
01/04:00am 15.6 12.7 2.7 42 5.9 E 7 9 4 5 1013.8 - 0.0
01/03:30am 16.1 12.5 2.9 41 6.1 ENE 11 19 6 10 1014.0 - 0.0
01/03:00am 18.7 15.5 3.3 36 7.3 SE 9 15 5 8 1013.5 1012.3 0.0
01/02:30am 19.2 15.3 3.4 35 7.5 SE 13 17 7 9 1013.4 - 0.0
01/02:00am 16.2 13.3 2.6 40 6.2 ESE 7 11 4 6 1013.6 - 0.0
01/01:30am 16.5 14.9 2.5 39 6.4 CALM 0 0 0 0 1013.7 - 0.0
01/01:00am 18.4 16.0 2.3 34 7.4 E 4 6 2 3 1013.9 - 0.0
01/12:30am 20.3 17.1 3.1 32 8.2 SSE 9 11 5 6 1013.8 - 0.0
01/12:00am 21.4 17.9 3.6 31 8.6 SSE 11 13 6 7 1013.8 1012.6 0.0
 
Date/Time
CST
Temp
°C
App
Temp
°C
Dew
Point
Rel
Hum
%
Delta-T
°C
Wind Press
QNH
hPa
Press
MSL
hPa
Rain
since 9 am
mm
Dir
 
Spd
km/h
Gust
km/h
Spd
kts
Gust
kts
31/11:30pm 22.7 18.6 4.2 30 9.2 SSE 15 20 8 11 1013.8 - 0.0
31/11:00pm 18.7 15.5 2.9 35 7.4 SSE 9 9 5 5 1013.6 - 0.0
31/10:30pm 19.0 16.3 2.8 34 7.6 S 6 9 3 5 1013.7 - 0.0
31/10:00pm 19.3 17.7 2.2 32 7.9 CALM 0 0 0 0 1013.9 - 0.0
31/09:30pm 20.3 18.8 3.1 32 8.2 CALM 0 2 0 1 1013.8 - 0.0
31/09:00pm 21.8 19.0 3.0 29 9.0 SSE 7 9 4 5 1013.5 1012.6 0.0
31/08:30pm 23.8 21.0 3.2 26 10.1 SE 7 7 4 4 1013.1 - 0.0
31/08:00pm 24.1 21.1 1.1 22 10.8 ESE 6 9 3 5 1012.9 - 0.0
31/07:30pm 25.3 22.5 3.3 24 10.9 SE 7 9 4 5 1012.6 - 0.0
31/07:00pm 27.3 24.7 4.4 23 11.7 SE 7 9 4 5 1012.4 - 0.0
31/06:30pm 29.0 25.3 2.3 18 13.3 SSE 11 13 6 7 1012.1 - 0.0
31/06:00pm 30.5 26.3 1.9 16 14.3 SE 13 20 7 11 1011.9 1010.9 0.0
31/05:30pm 31.2 26.7 2.4 16 14.6 S 15 20 8 11 1011.8 - 0.0
31/05:00pm 31.5 28.6 2.7 16 14.7 S 7 15 4 8 1011.6 - 0.0
31/04:30pm 32.2 27.9 3.2 16 15.0 SSE 15 20 8 11 1011.7 - 0.0
31/04:00pm 31.6 27.6 2.7 16 14.7 ENE 13 24 7 13 1011.8 - 0.0
31/03:30pm 31.5 27.7 1.8 15 14.9 ESE 11 17 6 9 1011.8 - 0.0
31/03:00pm 31.9 27.1 5.4 19 14.2 SE 20 28 11 15 1012.1 1011.1 0.0
31/02:30pm 31.6 26.8 4.4 18 14.3 ESE 19 26 10 14 1012.6 - 0.0
31/02:00pm 30.7 27.2 3.7 18 13.9 S 11 17 6 9 1013.0 - 0.0
31/01:30pm 30.8 26.7 2.1 16 14.4 ESE 13 24 7 13 1013.4 - 0.0
31/01:00pm 30.6 26.2 2.8 17 14.1 SE 15 24 8 13 1014.0 - 0.0
31/12:30pm 29.7 25.6 2.1 17 13.8 ESE 13 24 7 13 1014.7 - 0.0
31/12:00pm 29.7 25.0 2.9 18 13.6 ESE 17 26 9 14 1015.1 1014.1 0.0
31/11:30am 29.2 23.7 1.7 17 13.6 E 20 30 11 16 1015.6 - 0.0
31/11:00am 29.0 23.1 1.5 17 13.5 E 22 35 12 19 1016.1 - 0.0
31/10:30am 27.9 22.2 0.6 17 13.1 E 20 32 11 17 1016.4 - 0.0
31/10:00am 26.8 22.0 2.7 21 11.9 E 17 26 9 14 1016.6 - 0.0
31/09:30am 24.0 19.5 2.2 24 10.5 E 15 20 8 11 1016.7 - 0.0
31/09:00am 22.4 18.3 2.0 26 9.6 E 13 20 7 11 1016.6 1015.6 0.0
31/08:30am 21.1 16.4 0.9 26 9.3 ESE 15 20 8 11 1016.3 - 0.0
31/08:00am 19.3 15.7 0.8 29 8.4 SE 9 13 5 7 1016.3 - 0.0
31/07:56am 19.0 15.9 1.5 31 8.0 SE 7 9 4 5 1016.3 - 0.0
31/07:30am 14.0 10.9 0.3 39 5.8 SE 6 9 3 5 1016.1 - 0.0
31/07:00am 11.8 9.6 -1.3 40 5.3 CALM 0 0 0 0 1015.8 - 0.0
31/06:30am 12.4 9.2 -0.8 40 5.4 SE 6 7 3 4 1015.4 - 0.0
31/06:00am 12.6 9.1 -1.3 38 5.6 ESE 7 9 4 5 1015.2 1014.2 0.0
31/05:30am 12.7 9.4 -1.6 37 5.8 E 6 7 3 4 1015.1 - 0.0
31/05:00am 13.4 11.2 -1.7 35 6.1 CALM 0 6 0 3 1015.1 - 0.0
31/04:30am 14.7 11.3 -1.8 32 6.8 E 6 9 3 5 1015.0 - 0.0
31/04:00am 15.5 11.9 -2.0 30 7.2 E 7 7 4 4 1014.9 - 0.0
31/03:30am 16.4 12.4 -2.1 28 7.7 ENE 9 13 5 7 1014.8 - 0.0
31/03:00am 17.6 12.1 -2.1 26 8.2 ENE 17 30 9 16 1014.7 1013.7 0.0
31/02:30am 18.7 14.4 -1.7 25 8.7 ESE 11 15 6 8 1014.2 - 0.0
31/02:00am 19.0 14.7 -2.0 24 8.9 SE 11 13 6 7 1014.4 - 0.0
31/01:30am 20.0 15.6 -2.3 22 9.5 SE 11 17 6 9 1014.6 - 0.0
31/01:00am 21.0 15.9 -2.1 21 10.0 SE 15 20 8 11 1014.7 - 0.0
31/12:30am 21.0 16.3 -2.1 21 10.0 SE 13 17 7 9 1014.9 - 0.0
31/12:00am 21.7 16.6 -1.6 21 10.2 SE 15 20 8 11 1015.0 1014.0 0.0
 
Date/Time
CST
Temp
°C
App
Temp
°C
Dew
Point
Rel
Hum
%
Delta-T
°C
Wind Press
QNH
hPa
Press
MSL
hPa
Rain
since 9 am
mm
Dir
 
Spd
km/h
Gust
km/h
Spd
kts
Gust
kts
30/11:30pm 21.8 16.8 -1.5 21 10.3 SSE 15 20 8 11 1015.1 - 0.0
30/11:00pm 22.2 16.7 -1.8 20 10.5 SSE 17 20 9 11 1015.2 - 0.0
30/10:30pm 22.5 17.9 -0.9 21 10.5 SE 13 17 7 9 1015.1 - 0.0
30/10:00pm 22.7 18.2 -0.1 22 10.4 SSE 13 17 7 9 1015.0 - 0.0
30/09:30pm 23.1 19.2 0.9 23 10.4 SE 11 13 6 7 1014.9 - 0.0
30/09:00pm 22.3 18.6 0.2 23 10.1 S 9 13 5 7 1014.7 1013.7 0.0
30/08:30pm 24.5 20.8 0.1 20 11.3 ESE 9 11 5 6 1014.2 - 0.0
30/08:00pm 23.9 20.5 -0.4 20 11.1 ESE 7 9 4 5 1013.9 - 0.0
30/07:30pm 25.3 22.0 0.0 19 11.8 ESE 7 11 4 6 1013.7 - 0.0
30/07:00pm 26.2 23.0 -0.8 17 12.5 SE 6 9 3 5 1013.5 - 0.0
30/06:30pm 28.0 24.2 -1.0 15 13.5 SE 9 13 5 7 1013.3 - 0.0
30/06:00pm 29.5 25.3 -0.8 14 14.4 SE 11 17 6 9 1012.9 1012.0 0.0
30/05:30pm 30.0 25.7 -1.4 13 14.8 SSE 11 20 6 11 1012.7 - 0.0
30/05:00pm 30.4 23.7 -1.1 13 15.0 SSE 24 30 13 16 1012.5 - 0.0
30/04:30pm 31.1 26.8 -1.6 12 15.5 ESE 11 17 6 9 1012.5 - 0.0

Other Formats:

Comma delimited format used in spreadsheet applications
http://www.bom.gov.au/fwo/IDD60801/IDD60801.94225.axf

JavaScript Object Notation format (JSON) in row-major order
http://www.bom.gov.au/fwo/IDD60801/IDD60801.94225.json